createdAt,value
2018-06-07T00:00:11.864Z,20.80
2018-06-07T00:05:15.357Z,20.80
2018-06-07T00:10:18.776Z,20.70
2018-06-07T00:15:22.319Z,20.70
2018-06-07T00:20:28.846Z,20.70
2018-06-07T00:25:32.257Z,20.70
2018-06-07T00:30:35.856Z,20.80
2018-06-07T00:35:44.840Z,20.60
2018-06-07T00:40:48.331Z,20.60
2018-06-07T00:45:51.919Z,20.80
2018-06-07T00:50:55.406Z,20.70
2018-06-07T00:55:58.835Z,20.80
2018-06-07T01:01:02.800Z,20.80
2018-06-07T01:06:07.266Z,20.70
2018-06-07T01:11:10.738Z,20.60
2018-06-07T01:16:14.209Z,20.60
2018-06-07T01:21:17.571Z,20.50
2018-06-07T01:26:22.318Z,20.40
2018-06-07T01:31:32.115Z,20.40
2018-06-07T01:36:35.504Z,20.30
2018-06-07T01:41:38.899Z,20.20
2018-06-07T01:46:42.284Z,20.10
2018-06-07T01:51:46.711Z,20.00
2018-06-07T01:56:50.027Z,19.90
2018-06-07T02:01:53.356Z,19.90
2018-06-07T02:06:56.719Z,19.60
2018-06-07T02:12:00.159Z,19.60
2018-06-07T02:22:08.519Z,19.50
2018-06-07T02:27:11.971Z,19.40
2018-06-07T02:32:15.482Z,19.30
2018-06-07T02:37:18.950Z,19.30
2018-06-07T02:42:22.425Z,19.30
2018-06-07T02:47:25.930Z,19.20
2018-06-07T02:52:29.445Z,19.10
2018-06-07T02:57:32.989Z,19.10
2018-06-07T03:02:36.451Z,19.10
2018-06-07T03:07:39.900Z,19.00
2018-06-07T03:12:43.420Z,19.00
2018-06-07T03:17:46.896Z,18.90
2018-06-07T03:22:50.345Z,18.90
2018-06-07T03:27:53.854Z,19.00
2018-06-07T03:32:57.348Z,18.90
2018-06-07T03:38:00.794Z,18.80
2018-06-07T03:43:04.212Z,18.90
2018-06-07T03:48:07.631Z,18.80
2018-06-07T03:53:11.109Z,18.80
2018-06-07T03:58:15.615Z,19.00
2018-06-07T04:03:19.000Z,19.10
2018-06-07T04:08:22.578Z,19.10
2018-06-07T04:13:26.029Z,19.20
2018-06-07T04:18:29.489Z,19.40
2018-06-07T04:23:32.947Z,19.40
2018-06-07T04:28:37.609Z,19.40
2018-06-07T04:33:43.183Z,19.50
2018-06-07T04:38:46.681Z,19.70
2018-06-07T04:43:53.595Z,20.00
2018-06-07T04:49:00.625Z,20.20
2018-06-07T04:54:04.149Z,20.30
2018-06-07T05:04:10.779Z,20.70
2018-06-07T05:09:14.223Z,20.90
2018-06-07T05:14:17.675Z,21.10
2018-06-07T05:19:22.114Z,21.40
2018-06-07T05:24:25.527Z,21.60
2018-06-07T05:29:28.926Z,21.40
2018-06-07T05:34:33.078Z,21.70
2018-06-07T05:39:36.514Z,21.90
2018-06-07T05:44:39.918Z,22.00
2018-06-07T05:49:45.351Z,22.00
2018-06-07T05:54:49.796Z,21.90
2018-06-07T05:59:53.208Z,22.20
2018-06-07T06:04:56.631Z,22.40
2018-06-07T06:10:00.085Z,22.70
2018-06-07T06:15:03.648Z,23.00
2018-06-07T06:20:08.271Z,23.30
2018-06-07T06:25:13.732Z,23.50
2018-06-07T06:30:17.153Z,23.70
2018-06-07T06:35:20.678Z,24.00
2018-06-07T06:40:24.105Z,24.20
2018-06-07T06:45:34.889Z,24.20
2018-06-07T06:50:38.343Z,24.50
2018-06-07T06:55:41.745Z,24.70
2018-06-07T07:00:45.149Z,24.80
2018-06-07T07:05:48.578Z,25.20
2018-06-07T07:10:52.046Z,25.10
2018-06-07T07:15:55.510Z,25.50
2018-06-07T07:20:58.931Z,25.60
2018-06-07T07:26:02.341Z,25.90
2018-06-07T07:36:08.843Z,26.70
2018-06-07T07:41:12.274Z,27.10
2018-06-07T07:46:15.653Z,27.00
2018-06-07T07:51:21.147Z,27.40
2018-06-07T07:56:24.550Z,27.70
2018-06-07T08:01:28.097Z,27.80
2018-06-07T08:06:31.631Z,28.10
2018-06-07T08:11:35.066Z,28.60
2018-06-07T08:16:42.183Z,28.90
2018-06-07T08:21:45.646Z,29.10
2018-06-07T08:26:49.751Z,29.30
2018-06-07T08:31:53.189Z,29.20
2018-06-07T08:36:56.503Z,29.40
2018-06-07T08:41:59.879Z,29.90
2018-06-07T08:47:03.312Z,30.10
2018-06-07T08:52:06.649Z,30.60
2018-06-07T08:57:09.987Z,30.70
2018-06-07T09:02:13.390Z,30.80
2018-06-07T09:07:16.829Z,31.10
2018-06-07T09:12:21.359Z,31.30
2018-06-07T09:17:24.847Z,31.40
2018-06-07T09:22:28.358Z,31.40
2018-06-07T09:27:31.741Z,31.60
2018-06-07T09:32:36.122Z,32.00
2018-06-07T09:37:39.527Z,31.70
2018-06-07T09:42:43.177Z,31.80
2018-06-07T09:47:46.803Z,32.40
2018-06-07T09:52:51.114Z,33.10
2018-06-07T09:57:54.507Z,33.10
2018-06-07T10:08:01.091Z,32.50
2018-06-07T10:13:04.552Z,31.90
2018-06-07T10:18:07.907Z,32.00
2018-06-07T10:23:11.258Z,31.80
2018-06-07T10:33:21.741Z,31.90
2018-06-07T10:38:25.126Z,32.30
2018-06-07T10:43:31.782Z,32.50
2018-06-07T10:48:35.152Z,32.60
2018-06-07T10:53:38.529Z,32.20
2018-06-07T10:58:47.341Z,32.10
2018-06-07T11:03:50.682Z,32.50
2018-06-07T11:08:54.136Z,32.60
2018-06-07T11:13:57.470Z,32.30
2018-06-07T11:19:01.953Z,33.10
2018-06-07T11:24:08.017Z,34.10
2018-06-07T11:29:15.708Z,34.10
2018-06-07T11:34:21.213Z,34.30
2018-06-07T11:39:30.750Z,34.30
2018-06-07T11:44:34.275Z,34.00
2018-06-07T11:49:37.806Z,33.20
2018-06-07T11:54:41.224Z,32.80
2018-06-07T11:59:44.552Z,32.60
2018-06-07T12:04:53.526Z,31.70
2018-06-07T12:10:02.613Z,31.50
2018-06-07T12:15:09.322Z,32.00
2018-06-07T12:20:12.656Z,31.70
2018-06-07T12:25:19.439Z,31.20
2018-06-07T12:30:22.776Z,30.30
2018-06-07T12:35:26.149Z,29.80
2018-06-07T12:40:29.644Z,28.90
2018-06-07T12:45:33.925Z,27.70
2018-06-07T12:50:41.523Z,27.30
2018-06-07T12:55:45.782Z,27.10
2018-06-07T13:00:49.403Z,26.90
2018-06-07T13:05:52.892Z,26.90
2018-06-07T13:10:57.349Z,26.80
2018-06-07T13:16:00.734Z,26.50
2018-06-07T13:21:04.198Z,26.30
2018-06-07T13:26:09.954Z,26.40
2018-06-07T13:31:13.327Z,26.60
2018-06-07T13:36:16.674Z,26.80
2018-06-07T13:41:20.160Z,26.90
2018-06-07T13:46:23.599Z,26.80
2018-06-07T13:51:26.976Z,27.10
2018-06-07T13:56:31.285Z,27.50
2018-06-07T14:01:38.046Z,27.80
2018-06-07T14:06:41.399Z,27.90
2018-06-07T14:11:46.837Z,28.10
2018-06-07T14:16:51.257Z,28.30
2018-06-07T14:21:56.768Z,28.50
2018-06-07T14:27:00.247Z,28.80
2018-06-07T14:32:04.710Z,29.00
2018-06-07T14:37:09.183Z,29.00
2018-06-07T14:42:16.063Z,29.20
2018-06-07T14:47:19.559Z,29.50
2018-06-07T14:52:23.039Z,30.10
2018-06-07T14:57:26.435Z,30.50
2018-06-07T15:02:29.856Z,31.10
2018-06-07T15:07:33.271Z,31.50
2018-06-07T15:12:36.772Z,32.00
2018-06-07T15:17:40.227Z,31.90
2018-06-07T15:22:47.588Z,32.00
2018-06-07T15:27:51.016Z,32.40
2018-06-07T15:32:54.726Z,32.50
2018-06-07T15:37:58.648Z,32.30
2018-06-07T15:43:02.193Z,32.30
2018-06-07T15:48:05.695Z,32.30
2018-06-07T15:53:09.647Z,32.20
2018-06-07T15:58:13.440Z,32.20
2018-06-07T16:03:17.027Z,32.50
2018-06-07T16:08:22.947Z,32.60
2018-06-07T16:13:26.574Z,32.60
2018-06-07T16:18:29.986Z,32.60
2018-06-07T16:23:33.553Z,32.60
2018-06-07T16:28:40.067Z,32.40
2018-06-07T16:33:48.539Z,32.00
2018-06-07T16:38:52.100Z,31.50
2018-06-07T16:43:55.647Z,31.10
2018-06-07T16:48:59.038Z,30.80
2018-06-07T16:54:02.512Z,30.30
2018-06-07T16:59:12.107Z,29.90
2018-06-07T17:04:16.906Z,29.40
2018-06-07T17:09:20.732Z,28.90
2018-06-07T17:14:24.353Z,28.40
2018-06-07T17:19:29.062Z,28.10
2018-06-07T17:24:36.005Z,27.80
2018-06-07T17:29:44.923Z,27.40
2018-06-07T17:34:49.627Z,27.10
2018-06-07T17:39:53.389Z,26.70
2018-06-07T17:44:58.110Z,26.30
2018-06-07T17:50:01.592Z,26.00
2018-06-07T17:55:05.238Z,25.80
2018-06-07T18:00:08.804Z,25.50
2018-06-07T18:05:13.288Z,25.20
2018-06-07T18:10:17.815Z,25.00
2018-06-07T18:15:21.310Z,24.90
2018-06-07T18:20:24.823Z,24.70
2018-06-07T18:25:28.178Z,24.70
2018-06-07T18:30:35.060Z,24.60
2018-06-07T18:35:38.562Z,24.30
2018-06-07T18:40:41.995Z,24.10
2018-06-07T18:45:45.460Z,24.00
2018-06-07T18:50:48.918Z,24.00
2018-06-07T18:55:52.398Z,24.00
2018-06-07T19:00:55.807Z,23.80
2018-06-07T19:05:59.344Z,23.70
2018-06-07T19:11:02.843Z,23.70
2018-06-07T19:16:10.710Z,23.50
2018-06-07T19:21:20.105Z,23.50
2018-06-07T19:27:31.658Z,23.40
2018-06-07T19:33:42.658Z,23.30
2018-06-07T19:38:51.396Z,23.30
2018-06-07T19:43:54.813Z,23.10
2018-06-07T19:48:58.247Z,23.10
2018-06-07T19:54:02.024Z,22.80
2018-06-07T19:59:05.491Z,22.50
2018-06-07T20:04:08.919Z,22.50
2018-06-07T20:09:12.374Z,22.50
2018-06-07T20:14:16.325Z,22.60
2018-06-07T20:19:19.902Z,22.50
2018-06-07T20:24:23.296Z,22.50
2018-06-07T20:29:26.795Z,22.50
2018-06-07T20:34:31.227Z,22.50
2018-06-07T20:39:34.639Z,22.40
2018-06-07T20:44:39.012Z,22.20
2018-06-07T20:49:42.412Z,22.30
2018-06-07T20:54:46.888Z,22.20
2018-06-07T20:59:56.005Z,22.10
2018-06-07T21:04:59.434Z,22.00
2018-06-07T21:10:04.334Z,21.90
2018-06-07T21:15:07.895Z,21.80
2018-06-07T21:20:11.582Z,21.90
2018-06-07T21:25:16.062Z,21.90
2018-06-07T21:30:20.124Z,21.70
2018-06-07T21:35:24.170Z,21.60
2018-06-07T21:40:31.017Z,21.50
2018-06-07T21:45:34.880Z,21.60
2018-06-07T21:50:40.248Z,21.60
2018-06-07T21:55:44.454Z,21.50
2018-06-07T22:00:47.922Z,21.40
2018-06-07T22:05:51.366Z,21.30
2018-06-07T22:10:54.783Z,21.40
2018-06-07T22:15:58.152Z,21.30
2018-06-07T22:21:01.531Z,21.30
2018-06-07T22:26:05.018Z,21.20
2018-06-07T22:31:08.346Z,21.10
2018-06-07T22:36:13.503Z,21.10
2018-06-07T22:41:17.116Z,21.10
2018-06-07T22:46:21.639Z,21.10
2018-06-07T22:51:25.119Z,21.20
2018-06-07T22:56:28.554Z,21.20
2018-06-07T23:01:31.914Z,21.20
2018-06-07T23:06:35.405Z,21.30
2018-06-07T23:11:38.814Z,21.20
2018-06-07T23:16:42.193Z,21.20
2018-06-07T23:21:45.683Z,21.10
2018-06-07T23:26:52.846Z,21.00
2018-06-07T23:31:56.506Z,21.10
2018-06-07T23:36:59.983Z,21.00
2018-06-07T23:42:05.906Z,20.90
2018-06-07T23:47:09.443Z,20.90
2018-06-07T23:52:12.950Z,20.90
2018-06-07T23:57:16.547Z,21.00
